sensor_id;sensor_type;location;lat;lon;timestamp;P1;P2;P0
20157;PMS5003;10239;56.820;24.416;2023-11-25T00:00:58;0.00;0.00;0.00
20157;PMS5003;10239;56.820;24.416;2023-11-25T00:03:27;0.00;0.00;0.00
20157;PMS5003;10239;56.820;24.416;2023-11-25T00:05:55;0.00;0.00;0.00
20157;PMS5003;10239;56.820;24.416;2023-11-25T00:08:22;1.00;0.00;0.00
20157;PMS5003;10239;56.820;24.416;2023-11-25T00:10:52;1.00;1.00;0.00
20157;PMS5003;10239;56.820;24.416;2023-11-25T00:13:19;0.00;0.00;0.00
20157;PMS5003;10239;56.820;24.416;2023-11-25T00:15:48;2.80;0.80;0.00
20157;PMS5003;10239;56.820;24.416;2023-11-25T00:18:16;1.00;1.00;0.00
20157;PMS5003;10239;56.820;24.416;2023-11-25T00:20:45;1.00;1.00;0.00
20157;PMS5003;10239;56.820;24.416;2023-11-25T00:23:14;8.80;2.20;0.60
20157;PMS5003;10239;56.820;24.416;2023-11-25T00:25:41;0.20;0.20;0.00
20157;PMS5003;10239;56.820;24.416;2023-11-25T00:28:09;1.60;0.00;0.00
20157;PMS5003;10239;56.820;24.416;2023-11-25T00:30:37;0.00;0.00;0.00
20157;PMS5003;10239;56.820;24.416;2023-11-25T00:33:05;0.00;0.00;0.00
20157;PMS5003;10239;56.820;24.416;2023-11-25T00:35:33;2.20;0.00;0.00
20157;PMS5003;10239;56.820;24.416;2023-11-25T00:38:01;2.20;0.20;0.00
20157;PMS5003;10239;56.820;24.416;2023-11-25T00:40:29;2.40;2.40;0.80
20157;PMS5003;10239;56.820;24.416;2023-11-25T00:42:56;0.20;0.20;0.00
20157;PMS5003;10239;56.820;24.416;2023-11-25T00:45:24;0.00;0.00;0.00
20157;PMS5003;10239;56.820;24.416;2023-11-25T00:47:53;1.80;0.60;0.00
20157;PMS5003;10239;56.820;24.416;2023-11-25T00:50:23;0.80;0.80;0.00
20157;PMS5003;10239;56.820;24.416;2023-11-25T00:52:52;3.00;3.00;0.00
20157;PMS5003;10239;56.820;24.416;2023-11-25T00:55:20;0.60;0.00;0.00
20157;PMS5003;10239;56.820;24.416;2023-11-25T00:57:48;0.20;0.20;0.00
20157;PMS5003;10239;56.820;24.416;2023-11-25T01:00:16;3.80;1.80;0.40
20157;PMS5003;10239;56.820;24.416;2023-11-25T01:02:44;7.00;7.00;1.80
20157;PMS5003;10239;56.820;24.416;2023-11-25T01:05:12;4.00;1.80;0.00
20157;PMS5003;10239;56.820;24.416;2023-11-25T01:07:40;5.20;5.20;2.20
20157;PMS5003;10239;56.820;24.416;2023-11-25T01:10:08;0.40;0.40;0.00
20157;PMS5003;10239;56.820;24.416;2023-11-25T01:12:37;1.40;0.60;0.00
20157;PMS5003;10239;56.820;24.416;2023-11-25T01:15:04;1.80;0.00;0.00
20157;PMS5003;10239;56.820;24.416;2023-11-25T01:17:34;0.20;0.20;0.00
20157;PMS5003;10239;56.820;24.416;2023-11-25T01:20:02;0.00;0.00;0.00
20157;PMS5003;10239;56.820;24.416;2023-11-25T01:22:31;3.40;1.00;0.00
20157;PMS5003;10239;56.820;24.416;2023-11-25T01:24:59;0.00;0.00;0.00
20157;PMS5003;10239;56.820;24.416;2023-11-25T01:27:26;1.00;1.00;0.00
20157;PMS5003;10239;56.820;24.416;2023-11-25T01:29:54;0.00;0.00;0.00
20157;PMS5003;10239;56.820;24.416;2023-11-25T01:32:22;0.60;0.60;0.00
20157;PMS5003;10239;56.820;24.416;2023-11-25T01:34:49;1.00;1.00;0.60
20157;PMS5003;10239;56.820;24.416;2023-11-25T01:37:17;4.00;1.00;0.00
20157;PMS5003;10239;56.820;24.416;2023-11-25T01:39:45;0.80;0.80;0.00
20157;PMS5003;10239;56.820;24.416;2023-11-25T01:42:14;3.60;3.60;1.00
20157;PMS5003;10239;56.820;24.416;2023-11-25T01:44:41;2.60;2.60;1.00
20157;PMS5003;10239;56.820;24.416;2023-11-25T01:47:09;2.20;2.20;0.00
20157;PMS5003;10239;56.820;24.416;2023-11-25T01:49:40;1.00;1.00;0.00
20157;PMS5003;10239;56.820;24.416;2023-11-25T01:52:08;2.20;2.20;1.00
20157;PMS5003;10239;56.820;24.416;2023-11-25T01:54:37;3.20;1.80;0.60
20157;PMS5003;10239;56.820;24.416;2023-11-25T01:57:05;4.00;1.00;0.80
20157;PMS5003;10239;56.820;24.416;2023-11-25T01:59:34;0.80;0.80;0.00
20157;PMS5003;10239;56.820;24.416;2023-11-25T02:02:02;1.00;1.00;0.00
20157;PMS5003;10239;56.820;24.416;2023-11-25T02:04:35;1.80;1.80;0.00
20157;PMS5003;10239;56.820;24.416;2023-11-25T02:07:04;0.00;0.00;0.00
20157;PMS5003;10239;56.820;24.416;2023-11-25T02:09:32;4.60;1.40;0.00
20157;PMS5003;10239;56.820;24.416;2023-11-25T02:12:01;1.00;1.00;0.00
20157;PMS5003;10239;56.820;24.416;2023-11-25T02:14:29;1.00;1.00;0.20
20157;PMS5003;10239;56.820;24.416;2023-11-25T02:16:57;0.00;0.00;0.00
20157;PMS5003;10239;56.820;24.416;2023-11-25T02:19:27;1.00;1.00;0.00
20157;PMS5003;10239;56.820;24.416;2023-11-25T02:21:56;0.00;0.00;0.00
20157;PMS5003;10239;56.820;24.416;2023-11-25T02:24:25;1.00;1.00;0.00
20157;PMS5003;10239;56.820;24.416;2023-11-25T02:26:57;1.80;0.60;0.00
20157;PMS5003;10239;56.820;24.416;2023-11-25T02:29:26;0.80;0.80;0.00
20157;PMS5003;10239;56.820;24.416;2023-11-25T02:31:55;0.00;0.00;0.00
20157;PMS5003;10239;56.820;24.416;2023-11-25T02:34:25;1.00;1.00;0.00
20157;PMS5003;10239;56.820;24.416;2023-11-25T02:36:54;3.20;2.60;0.00
20157;PMS5003;10239;56.820;24.416;2023-11-25T02:39:22;0.60;0.60;0.00
20157;PMS5003;10239;56.820;24.416;2023-11-25T02:41:50;3.00;0.00;0.00
20157;PMS5003;10239;56.820;24.416;2023-11-25T02:44:18;1.00;1.00;0.00
20157;PMS5003;10239;56.820;24.416;2023-11-25T02:46:48;0.00;0.00;0.00
20157;PMS5003;10239;56.820;24.416;2023-11-25T02:49:16;1.00;1.00;0.00
20157;PMS5003;10239;56.820;24.416;2023-11-25T02:51:51;1.00;1.00;0.00
20157;PMS5003;10239;56.820;24.416;2023-11-25T02:54:22;4.00;0.00;0.00
20157;PMS5003;10239;56.820;24.416;2023-11-25T02:56:51;2.60;0.60;0.00
20157;PMS5003;10239;56.820;24.416;2023-11-25T02:59:19;0.80;0.80;0.00
20157;PMS5003;10239;56.820;24.416;2023-11-25T03:01:46;0.80;0.80;0.00
20157;PMS5003;10239;56.820;24.416;2023-11-25T03:04:21;2.40;2.20;1.00
20157;PMS5003;10239;56.820;24.416;2023-11-25T03:06:54;1.00;1.00;0.20
20157;PMS5003;10239;56.820;24.416;2023-11-25T03:09:22;3.80;1.00;0.00
20157;PMS5003;10239;56.820;24.416;2023-11-25T03:11:52;1.00;1.00;0.00
20157;PMS5003;10239;56.820;24.416;2023-11-25T03:14:20;1.00;1.00;0.00
20157;PMS5003;10239;56.820;24.416;2023-11-25T03:16:49;1.40;1.40;0.60
20157;PMS5003;10239;56.820;24.416;2023-11-25T03:19:21;4.80;2.60;0.00
20157;PMS5003;10239;56.820;24.416;2023-11-25T03:21:51;0.80;0.80;0.00
20157;PMS5003;10239;56.820;24.416;2023-11-25T03:24:20;0.60;0.60;0.00
20157;PMS5003;10239;56.820;24.416;2023-11-25T03:26:51;6.00;3.80;0.80
20157;PMS5003;10239;56.820;24.416;2023-11-25T03:29:19;3.00;3.00;0.00
20157;PMS5003;10239;56.820;24.416;2023-11-25T03:31:47;3.40;1.00;0.00
20157;PMS5003;10239;56.820;24.416;2023-11-25T03:34:15;3.80;3.80;1.00
20157;PMS5003;10239;56.820;24.416;2023-11-25T03:36:43;0.00;0.00;0.00
20157;PMS5003;10239;56.820;24.416;2023-11-25T03:39:10;0.80;0.80;0.00
20157;PMS5003;10239;56.820;24.416;2023-11-25T03:41:40;0.60;0.60;0.00
20157;PMS5003;10239;56.820;24.416;2023-11-25T03:44:09;6.00;1.80;0.00
20157;PMS5003;10239;56.820;24.416;2023-11-25T03:46:39;4.00;1.80;0.00
20157;PMS5003;10239;56.820;24.416;2023-11-25T03:49:09;4.20;1.80;0.00
20157;PMS5003;10239;56.820;24.416;2023-11-25T03:51:37;4.00;2.60;0.60
20157;PMS5003;10239;56.820;24.416;2023-11-25T03:54:04;4.00;1.00;0.80
20157;PMS5003;10239;56.820;24.416;2023-11-25T03:56:32;2.80;2.20;0.60
20157;PMS5003;10239;56.820;24.416;2023-11-25T03:59:00;2.20;1.80;1.00
20157;PMS5003;10239;56.820;24.416;2023-11-25T04:01:28;1.40;0.40;0.00
20157;PMS5003;10239;56.820;24.416;2023-11-25T04:03:56;3.60;2.60;0.00
20157;PMS5003;10239;56.820;24.416;2023-11-25T04:06:24;3.00;3.00;0.20
20157;PMS5003;10239;56.820;24.416;2023-11-25T04:08:53;5.60;3.00;1.00
20157;PMS5003;10239;56.820;24.416;2023-11-25T04:11:20;2.60;0.40;0.00
20157;PMS5003;10239;56.820;24.416;2023-11-25T04:13:48;6.00;2.20;1.00
20157;PMS5003;10239;56.820;24.416;2023-11-25T04:16:16;1.80;1.80;0.40
20157;PMS5003;10239;56.820;24.416;2023-11-25T04:18:45;2.80;1.00;0.00
20157;PMS5003;10239;56.820;24.416;2023-11-25T04:21:14;1.80;1.00;0.40
20157;PMS5003;10239;56.820;24.416;2023-11-25T04:23:42;2.80;2.60;1.00
20157;PMS5003;10239;56.820;24.416;2023-11-25T04:26:10;1.00;1.00;0.00
20157;PMS5003;10239;56.820;24.416;2023-11-25T04:28:38;1.00;1.00;1.00
20157;PMS5003;10239;56.820;24.416;2023-11-25T04:31:06;1.00;1.00;0.20
20157;PMS5003;10239;56.820;24.416;2023-11-25T04:33:34;3.80;3.20;1.00
20157;PMS5003;10239;56.820;24.416;2023-11-25T04:36:01;3.00;3.00;0.00
20157;PMS5003;10239;56.820;24.416;2023-11-25T04:38:29;2.20;2.20;0.80
20157;PMS5003;10239;56.820;24.416;2023-11-25T04:40:57;4.80;1.00;0.00
20157;PMS5003;10239;56.820;24.416;2023-11-25T04:43:25;6.00;0.80;0.00
20157;PMS5003;10239;56.820;24.416;2023-11-25T04:45:53;4.00;1.80;1.00
20157;PMS5003;10239;56.820;24.416;2023-11-25T04:48:21;6.20;1.00;0.00
20157;PMS5003;10239;56.820;24.416;2023-11-25T04:50:49;3.00;3.00;0.00
20157;PMS5003;10239;56.820;24.416;2023-11-25T04:53:16;5.20;4.00;1.00
20157;PMS5003;10239;56.820;24.416;2023-11-25T04:55:44;6.00;3.20;1.00
20157;PMS5003;10239;56.820;24.416;2023-11-25T04:58:12;4.20;4.20;1.00
20157;PMS5003;10239;56.820;24.416;2023-11-25T05:00:40;4.00;4.00;1.00
20157;PMS5003;10239;56.820;24.416;2023-11-25T05:03:08;4.80;4.00;0.80
20157;PMS5003;10239;56.820;24.416;2023-11-25T05:05:36;3.20;2.60;1.00
20157;PMS5003;10239;56.820;24.416;2023-11-25T05:08:05;4.00;4.00;1.80
20157;PMS5003;10239;56.820;24.416;2023-11-25T05:10:33;7.60;3.80;1.00
20157;PMS5003;10239;56.820;24.416;2023-11-25T05:13:01;2.60;1.80;0.00
20157;PMS5003;10239;56.820;24.416;2023-11-25T05:15:28;8.20;6.20;1.00
20157;PMS5003;10239;56.820;24.416;2023-11-25T05:17:55;3.80;2.60;1.00
20157;PMS5003;10239;56.820;24.416;2023-11-25T05:20:23;5.20;5.20;1.80
20157;PMS5003;10239;56.820;24.416;2023-11-25T05:22:50;8.80;4.80;1.00
20157;PMS5003;10239;56.820;24.416;2023-11-25T05:25:18;4.00;2.60;1.00
20157;PMS5003;10239;56.820;24.416;2023-11-25T05:27:45;3.00;3.00;1.00
20157;PMS5003;10239;56.820;24.416;2023-11-25T05:30:13;1.00;1.00;0.00
20157;PMS5003;10239;56.820;24.416;2023-11-25T05:32:42;5.60;5.60;3.00
20157;PMS5003;10239;56.820;24.416;2023-11-25T05:35:11;2.20;2.20;0.00
20157;PMS5003;10239;56.820;24.416;2023-11-25T05:37:40;4.00;4.00;1.00
20157;PMS5003;10239;56.820;24.416;2023-11-25T05:40:11;3.60;3.00;1.00
20157;PMS5003;10239;56.820;24.416;2023-11-25T05:42:42;5.00;4.40;2.60
20157;PMS5003;10239;56.820;24.416;2023-11-25T05:45:15;6.60;3.80;1.40
20157;PMS5003;10239;56.820;24.416;2023-11-25T05:47:45;7.00;4.40;1.00
20157;PMS5003;10239;56.820;24.416;2023-11-25T05:50:15;6.40;3.80;1.00
20157;PMS5003;10239;56.820;24.416;2023-11-25T05:52:53;4.80;4.80;1.00
20157;PMS5003;10239;56.820;24.416;2023-11-25T05:55:21;5.20;5.20;1.00
20157;PMS5003;10239;56.820;24.416;2023-11-25T05:57:49;4.40;4.00;1.00
20157;PMS5003;10239;56.820;24.416;2023-11-25T06:00:19;6.40;4.40;3.20
20157;PMS5003;10239;56.820;24.416;2023-11-25T06:02:48;7.00;5.60;2.20
20157;PMS5003;10239;56.820;24.416;2023-11-25T06:05:16;4.80;2.60;1.00
20157;PMS5003;10239;56.820;24.416;2023-11-25T06:07:44;5.20;3.60;0.80
20157;PMS5003;10239;56.820;24.416;2023-11-25T06:10:12;6.20;4.00;1.00
20157;PMS5003;10239;56.820;24.416;2023-11-25T06:12:40;0.60;0.60;0.40
20157;PMS5003;10239;56.820;24.416;2023-11-25T06:15:08;7.00;3.60;1.00
20157;PMS5003;10239;56.820;24.416;2023-11-25T06:17:36;1.80;1.80;1.00
20157;PMS5003;10239;56.820;24.416;2023-11-25T06:20:05;4.40;4.40;1.00
20157;PMS5003;10239;56.820;24.416;2023-11-25T06:22:33;4.00;4.00;3.00
20157;PMS5003;10239;56.820;24.416;2023-11-25T06:25:00;5.20;4.40;0.80
20157;PMS5003;10239;56.820;24.416;2023-11-25T06:27:31;8.60;4.40;1.00
20157;PMS5003;10239;56.820;24.416;2023-11-25T06:29:58;5.20;3.40;0.60
20157;PMS5003;10239;56.820;24.416;2023-11-25T06:32:27;4.60;3.40;1.00
20157;PMS5003;10239;56.820;24.416;2023-11-25T06:34:55;9.00;4.40;3.00
20157;PMS5003;10239;56.820;24.416;2023-11-25T06:37:24;4.60;4.60;1.00
20157;PMS5003;10239;56.820;24.416;2023-11-25T06:39:52;4.00;3.60;1.40
20157;PMS5003;10239;56.820;24.416;2023-11-25T06:42:19;3.00;3.00;1.00
20157;PMS5003;10239;56.820;24.416;2023-11-25T06:44:49;6.00;4.00;1.00
20157;PMS5003;10239;56.820;24.416;2023-11-25T06:47:18;4.20;3.00;1.00
20157;PMS5003;10239;56.820;24.416;2023-11-25T06:49:45;3.80;3.80;1.00
20157;PMS5003;10239;56.820;24.416;2023-11-25T06:52:17;8.40;8.40;4.60
20157;PMS5003;10239;56.820;24.416;2023-11-25T06:54:44;9.40;5.60;3.00
20157;PMS5003;10239;56.820;24.416;2023-11-25T06:57:11;5.60;3.00;1.00
20157;PMS5003;10239;56.820;24.416;2023-11-25T06:59:39;6.40;4.60;2.20
20157;PMS5003;10239;56.820;24.416;2023-11-25T07:02:12;5.40;4.00;1.00
20157;PMS5003;10239;56.820;24.416;2023-11-25T07:04:40;4.00;4.00;1.00
20157;PMS5003;10239;56.820;24.416;2023-11-25T07:07:08;0.60;0.40;0.00
20157;PMS5003;10239;56.820;24.416;2023-11-25T07:09:36;6.40;4.20;1.00
20157;PMS5003;10239;56.820;24.416;2023-11-25T07:12:04;4.20;3.80;1.00
20157;PMS5003;10239;56.820;24.416;2023-11-25T07:14:32;4.80;4.40;1.00
20157;PMS5003;10239;56.820;24.416;2023-11-25T07:16:59;5.60;4.80;1.00
20157;PMS5003;10239;56.820;24.416;2023-11-25T07:19:27;6.00;5.00;2.20
20157;PMS5003;10239;56.820;24.416;2023-11-25T07:21:55;7.20;3.20;1.00
20157;PMS5003;10239;56.820;24.416;2023-11-25T07:24:24;4.60;4.60;2.60
20157;PMS5003;10239;56.820;24.416;2023-11-25T07:26:54;4.40;3.40;1.00
20157;PMS5003;10239;56.820;24.416;2023-11-25T07:29:29;4.00;2.20;0.20
20157;PMS5003;10239;56.820;24.416;2023-11-25T07:31:59;7.00;7.00;3.00
20157;PMS5003;10239;56.820;24.416;2023-11-25T07:34:27;6.80;6.40;3.00
20157;PMS5003;10239;56.820;24.416;2023-11-25T07:36:57;6.20;4.00;3.00
20157;PMS5003;10239;56.820;24.416;2023-11-25T07:39:25;6.40;6.40;3.00
20157;PMS5003;10239;56.820;24.416;2023-11-25T07:41:56;3.20;3.00;1.00
20157;PMS5003;10239;56.820;24.416;2023-11-25T07:44:25;10.80;6.20;1.80
20157;PMS5003;10239;56.820;24.416;2023-11-25T07:46:59;5.60;3.20;1.80
20157;PMS5003;10239;56.820;24.416;2023-11-25T07:49:28;4.00;4.00;3.00
20157;PMS5003;10239;56.820;24.416;2023-11-25T07:51:56;6.00;3.00;1.00
20157;PMS5003;10239;56.820;24.416;2023-11-25T07:54:24;9.00;6.00;1.80
20157;PMS5003;10239;56.820;24.416;2023-11-25T07:56:52;7.00;6.60;3.00
20157;PMS5003;10239;56.820;24.416;2023-11-25T07:59:19;8.80;6.00;3.00
20157;PMS5003;10239;56.820;24.416;2023-11-25T08:01:47;4.80;3.20;1.00
20157;PMS5003;10239;56.820;24.416;2023-11-25T08:04:15;7.80;4.80;1.80
20157;PMS5003;10239;56.820;24.416;2023-11-25T08:06:43;5.80;5.80;2.00
20157;PMS5003;10239;56.820;24.416;2023-11-25T08:09:11;6.00;3.80;1.00
20157;PMS5003;10239;56.820;24.416;2023-11-25T08:11:39;6.40;6.40;1.80
20157;PMS5003;10239;56.820;24.416;2023-11-25T08:14:07;5.40;4.00;1.40
20157;PMS5003;10239;56.820;24.416;2023-11-25T08:16:34;4.00;4.00;3.00
20157;PMS5003;10239;56.820;24.416;2023-11-25T08:19:02;12.00;5.00;1.00
20157;PMS5003;10239;56.820;24.416;2023-11-25T08:21:30;3.60;3.60;2.60
20157;PMS5003;10239;56.820;24.416;2023-11-25T08:23:58;13.60;10.00;3.00
20157;PMS5003;10239;56.820;24.416;2023-11-25T08:26:27;5.00;1.00;1.00
20157;PMS5003;10239;56.820;24.416;2023-11-25T08:28:56;6.40;6.20;3.40
20157;PMS5003;10239;56.820;24.416;2023-11-25T08:31:25;9.80;7.80;3.00
20157;PMS5003;10239;56.820;24.416;2023-11-25T08:33:53;10.00;5.20;2.20
20157;PMS5003;10239;56.820;24.416;2023-11-25T08:36:22;3.00;2.60;0.00
20157;PMS5003;10239;56.820;24.416;2023-11-25T08:38:50;2.20;2.20;0.60
20157;PMS5003;10239;56.820;24.416;2023-11-25T08:41:23;12.00;11.20;4.00
20157;PMS5003;10239;56.820;24.416;2023-11-25T08:43:50;6.40;6.20;2.80
20157;PMS5003;10239;56.820;24.416;2023-11-25T08:46:18;5.80;1.20;0.00
20157;PMS5003;10239;56.820;24.416;2023-11-25T08:48:49;4.60;4.60;1.20
20157;PMS5003;10239;56.820;24.416;2023-11-25T08:51:17;7.00;4.00;1.00
20157;PMS5003;10239;56.820;24.416;2023-11-25T08:53:45;8.20;4.80;3.00
20157;PMS5003;10239;56.820;24.416;2023-11-25T08:56:16;12.20;6.60;2.00
20157;PMS5003;10239;56.820;24.416;2023-11-25T08:58:44;5.00;4.00;1.00
20157;PMS5003;10239;56.820;24.416;2023-11-25T09:01:12;7.60;5.80;2.40
20157;PMS5003;10239;56.820;24.416;2023-11-25T09:03:40;6.80;6.00;3.00
20157;PMS5003;10239;56.820;24.416;2023-11-25T09:06:09;10.00;8.00;3.80
20157;PMS5003;10239;56.820;24.416;2023-11-25T09:08:38;6.60;4.00;0.80
20157;PMS5003;10239;56.820;24.416;2023-11-25T09:11:06;15.80;9.20;4.00
20157;PMS5003;10239;56.820;24.416;2023-11-25T09:13:34;8.80;6.80;3.00
20157;PMS5003;10239;56.820;24.416;2023-11-25T09:16:01;5.80;5.60;1.00
20157;PMS5003;10239;56.820;24.416;2023-11-25T09:18:30;15.20;8.40;3.00
20157;PMS5003;10239;56.820;24.416;2023-11-25T09:20:58;11.20;7.40;3.80
20157;PMS5003;10239;56.820;24.416;2023-11-25T09:23:26;12.60;9.40;4.00
20157;PMS5003;10239;56.820;24.416;2023-11-25T09:25:54;6.00;6.00;3.00
20157;PMS5003;10239;56.820;24.416;2023-11-25T09:28:21;10.00;7.40;4.00
20157;PMS5003;10239;56.820;24.416;2023-11-25T09:30:49;9.60;7.20;3.20
20157;PMS5003;10239;56.820;24.416;2023-11-25T09:33:17;9.20;9.20;4.00
20157;PMS5003;10239;56.820;24.416;2023-11-25T09:35:44;9.50;8.75;3.50
20157;PMS5003;10239;56.820;24.416;2023-11-25T09:38:12;10.00;8.20;3.20
20157;PMS5003;10239;56.820;24.416;2023-11-25T09:40:39;9.40;8.40;3.80
20157;PMS5003;10239;56.820;24.416;2023-11-25T09:43:07;9.60;9.60;4.00
20157;PMS5003;10239;56.820;24.416;2023-11-25T09:45:36;8.60;6.60;3.40
20157;PMS5003;10239;56.820;24.416;2023-11-25T09:48:04;17.40;10.00;4.40
20157;PMS5003;10239;56.820;24.416;2023-11-25T09:50:32;16.00;12.00;4.00
20157;PMS5003;10239;56.820;24.416;2023-11-25T09:53:03;18.20;12.00;5.60
20157;PMS5003;10239;56.820;24.416;2023-11-25T09:55:37;16.20;9.00;4.00
20157;PMS5003;10239;56.820;24.416;2023-11-25T09:58:05;9.40;8.20;4.80
20157;PMS5003;10239;56.820;24.416;2023-11-25T10:00:33;16.20;7.00;3.00
20157;PMS5003;10239;56.820;24.416;2023-11-25T10:03:06;5.80;4.40;0.00
20157;PMS5003;10239;56.820;24.416;2023-11-25T10:05:37;8.20;6.40;1.00
20157;PMS5003;10239;56.820;24.416;2023-11-25T10:08:05;7.80;7.20;4.00
20157;PMS5003;10239;56.820;24.416;2023-11-25T10:10:33;8.40;7.60;4.40
20157;PMS5003;10239;56.820;24.416;2023-11-25T10:13:01;11.60;5.60;3.00
20157;PMS5003;10239;56.820;24.416;2023-11-25T10:15:30;21.60;18.80;10.00
20157;PMS5003;10239;56.820;24.416;2023-11-25T10:17:58;18.00;10.00;5.40
20157;PMS5003;10239;56.820;24.416;2023-11-25T10:20:26;10.60;10.60;5.00
20157;PMS5003;10239;56.820;24.416;2023-11-25T10:22:53;13.20;6.80;2.20
20157;PMS5003;10239;56.820;24.416;2023-11-25T10:25:27;10.40;8.20;4.00
20157;PMS5003;10239;56.820;24.416;2023-11-25T10:27:55;10.80;8.40;5.00
20157;PMS5003;10239;56.820;24.416;2023-11-25T10:30:23;7.80;7.60;2.20
20157;PMS5003;10239;56.820;24.416;2023-11-25T10:32:52;12.60;12.60;5.20
20157;PMS5003;10239;56.820;24.416;2023-11-25T10:35:21;7.80;7.80;3.40
20157;PMS5003;10239;56.820;24.416;2023-11-25T10:37:52;10.20;9.40;4.00
20157;PMS5003;10239;56.820;24.416;2023-11-25T10:40:20;14.00;12.00;5.80
20157;PMS5003;10239;56.820;24.416;2023-11-25T10:42:49;11.20;8.80;4.00
20157;PMS5003;10239;56.820;24.416;2023-11-25T10:45:17;9.20;9.20;6.80
20157;PMS5003;10239;56.820;24.416;2023-11-25T10:47:48;6.40;4.40;1.40
20157;PMS5003;10239;56.820;24.416;2023-11-25T10:50:16;9.60;8.00;4.00
20157;PMS5003;10239;56.820;24.416;2023-11-25T10:52:44;12.60;10.20;5.00
20157;PMS5003;10239;56.820;24.416;2023-11-25T10:55:16;13.40;10.20;5.00
20157;PMS5003;10239;56.820;24.416;2023-11-25T10:57:47;9.00;5.80;1.00
20157;PMS5003;10239;56.820;24.416;2023-11-25T11:00:15;11.20;10.20;5.80
20157;PMS5003;10239;56.820;24.416;2023-11-25T11:02:47;7.80;6.20;4.00
20157;PMS5003;10239;56.820;24.416;2023-11-25T11:05:24;18.20;17.20;10.00
20157;PMS5003;10239;56.820;24.416;2023-11-25T11:08:13;23.40;16.40;9.00
20157;PMS5003;10239;56.820;24.416;2023-11-25T11:11:01;21.20;17.60;10.00
20157;PMS5003;10239;56.820;24.416;2023-11-25T11:13:52;14.20;10.60;6.60
20157;PMS5003;10239;56.820;24.416;2023-11-25T11:19:05;21.00;13.00;6.00
20157;PMS5003;10239;56.820;24.416;2023-11-25T11:21:36;13.00;11.00;7.00
20157;PMS5003;10239;56.820;24.416;2023-11-25T11:24:05;11.20;10.80;6.60
20157;PMS5003;10239;56.820;24.416;2023-11-25T11:29:51;12.60;7.80;3.40
20157;PMS5003;10239;56.820;24.416;2023-11-25T11:32:32;13.60;11.20;7.00
20157;PMS5003;10239;56.820;24.416;2023-11-25T11:35:02;13.60;9.80;4.80
20157;PMS5003;10239;56.820;24.416;2023-11-25T11:37:37;15.20;12.80;6.60
20157;PMS5003;10239;56.820;24.416;2023-11-25T11:40:05;14.20;11.60;5.20
20157;PMS5003;10239;56.820;24.416;2023-11-25T11:42:33;21.00;10.00;4.00
20157;PMS5003;10239;56.820;24.416;2023-11-25T11:45:05;16.80;12.00;6.00
20157;PMS5003;10239;56.820;24.416;2023-11-25T11:47:56;17.60;15.60;6.00
20157;PMS5003;10239;56.820;24.416;2023-11-25T11:50:26;15.40;10.80;6.20
20157;PMS5003;10239;56.820;24.416;2023-11-25T11:55:34;13.80;9.40;3.80
20157;PMS5003;10239;56.820;24.416;2023-11-25T12:03:30;7.80;6.20;3.00
20157;PMS5003;10239;56.820;24.416;2023-11-25T12:06:05;10.80;9.00;4.80
20157;PMS5003;10239;56.820;24.416;2023-11-25T12:08:33;6.00;5.40;2.60
20157;PMS5003;10239;56.820;24.416;2023-11-25T12:11:01;9.80;6.60;3.00
20157;PMS5003;10239;56.820;24.416;2023-11-25T12:13:33;9.60;6.80;3.00
20157;PMS5003;10239;56.820;24.416;2023-11-25T12:16:06;6.80;4.20;3.20
20157;PMS5003;10239;56.820;24.416;2023-11-25T12:18:37;11.60;11.20;4.00
20157;PMS5003;10239;56.820;24.416;2023-11-25T12:21:04;12.00;8.60;3.80
20157;PMS5003;10239;56.820;24.416;2023-11-25T12:23:32;9.60;7.00;3.00
20157;PMS5003;10239;56.820;24.416;2023-11-25T12:26:03;13.00;9.80;3.60
20157;PMS5003;10239;56.820;24.416;2023-11-25T12:28:41;8.20;5.60;3.00
20157;PMS5003;10239;56.820;24.416;2023-11-25T12:31:09;7.20;6.60;3.00
20157;PMS5003;10239;56.820;24.416;2023-11-25T12:33:41;7.40;7.40;3.00
20157;PMS5003;10239;56.820;24.416;2023-11-25T12:36:09;8.60;6.00;2.60
20157;PMS5003;10239;56.820;24.416;2023-11-25T12:38:37;6.00;6.00;4.00
20157;PMS5003;10239;56.820;24.416;2023-11-25T12:41:05;12.80;9.60;3.60
20157;PMS5003;10239;56.820;24.416;2023-11-25T12:46:29;10.00;9.20;4.00
20157;PMS5003;10239;56.820;24.416;2023-11-25T12:48:57;17.60;9.40;3.00
20157;PMS5003;10239;56.820;24.416;2023-11-25T12:51:41;10.80;9.00;3.00
20157;PMS5003;10239;56.820;24.416;2023-11-25T12:54:10;7.00;7.00;3.80
20157;PMS5003;10239;56.820;24.416;2023-11-25T12:56:38;11.60;9.20;3.00
20157;PMS5003;10239;56.820;24.416;2023-11-25T12:59:06;11.20;9.00;3.60
20157;PMS5003;10239;56.820;24.416;2023-11-25T13:01:34;6.80;6.40;3.80
20157;PMS5003;10239;56.820;24.416;2023-11-25T13:04:03;10.00;6.60;3.00
20157;PMS5003;10239;56.820;24.416;2023-11-25T13:06:52;13.20;9.80;4.00
20157;PMS5003;10239;56.820;24.416;2023-11-25T13:09:29;4.40;4.40;0.80
20157;PMS5003;10239;56.820;24.416;2023-11-25T13:12:00;13.20;8.20;3.40
20157;PMS5003;10239;56.820;24.416;2023-11-25T13:14:28;8.80;8.20;4.00
20157;PMS5003;10239;56.820;24.416;2023-11-25T13:16:56;11.60;9.60;4.00
20157;PMS5003;10239;56.820;24.416;2023-11-25T13:19:24;8.80;7.40;3.20
20157;PMS5003;10239;56.820;24.416;2023-11-25T13:21:53;13.40;10.40;6.80
20157;PMS5003;10239;56.820;24.416;2023-11-25T13:24:20;16.40;16.00;7.80
20157;PMS5003;10239;56.820;24.416;2023-11-25T13:26:49;9.80;9.80;4.40
20157;PMS5003;10239;56.820;24.416;2023-11-25T13:29:16;9.00;6.60;4.80
20157;PMS5003;10239;56.820;24.416;2023-11-25T13:31:44;21.40;12.40;6.00
20157;PMS5003;10239;56.820;24.416;2023-11-25T13:34:11;19.80;14.20;6.80
20157;PMS5003;10239;56.820;24.416;2023-11-25T13:36:40;18.60;15.20;7.00
20157;PMS5003;10239;56.820;24.416;2023-11-25T13:39:11;15.60;12.60;7.00
20157;PMS5003;10239;56.820;24.416;2023-11-25T13:41:46;15.80;14.40;8.60
20157;PMS5003;10239;56.820;24.416;2023-11-25T13:44:13;20.20;16.40;8.20
20157;PMS5003;10239;56.820;24.416;2023-11-25T13:46:41;28.00;20.20;9.00
20157;PMS5003;10239;56.820;24.416;2023-11-25T13:49:09;19.60;19.20;10.40
20157;PMS5003;10239;56.820;24.416;2023-11-25T13:51:37;29.20;20.20;9.00
20157;PMS5003;10239;56.820;24.416;2023-11-25T13:54:04;19.00;17.20;9.60
20157;PMS5003;10239;56.820;24.416;2023-11-25T13:56:32;14.00;13.60;8.60
20157;PMS5003;10239;56.820;24.416;2023-11-25T13:59:00;19.40;15.20;6.00
20157;PMS5003;10239;56.820;24.416;2023-11-25T14:01:27;17.00;13.00;7.00
20157;PMS5003;10239;56.820;24.416;2023-11-25T14:03:55;25.00;15.00;6.60
20157;PMS5003;10239;56.820;24.416;2023-11-25T14:06:23;20.60;12.00;6.00
20157;PMS5003;10239;56.820;24.416;2023-11-25T14:08:51;10.00;7.00;3.20
20157;PMS5003;10239;56.820;24.416;2023-11-25T14:11:18;6.00;6.00;3.00
20157;PMS5003;10239;56.820;24.416;2023-11-25T14:13:50;13.20;9.00;4.40
20157;PMS5003;10239;56.820;24.416;2023-11-25T14:16:22;13.40;12.00;4.00
20157;PMS5003;10239;56.820;24.416;2023-11-25T14:18:50;11.60;9.20;4.80
20157;PMS5003;10239;56.820;24.416;2023-11-25T14:21:19;13.20;11.80;5.20
20157;PMS5003;10239;56.820;24.416;2023-11-25T14:23:46;10.80;9.60;4.00
20157;PMS5003;10239;56.820;24.416;2023-11-25T14:26:14;9.60;9.20;4.00
20157;PMS5003;10239;56.820;24.416;2023-11-25T14:28:41;9.60;9.60;5.60
20157;PMS5003;10239;56.820;24.416;2023-11-25T14:31:09;12.60;10.40;4.00